Ames, KS

12:35 PM CDT on May 22, 2015 (GMT -0500)
Joe's Place | | Change Station
CLOSE
Current Station
Personal Weather Station
Location: Concordia, KS
Elevation: 1440 ft
Nearby Weather Stations

Elev 1440 ft 39.57 °N, 97.65 °W | Updated 25 seconds ago

Overcast
Overcast
56.9 °F
Feels Like 56.9 °F
N
3.0
Wind Variable Wind from SE
Gusts 8.0 mph

Today
High -- | Low -- °F
--% Chance of Precip.
Yesterday
High -- | Low -- °F
Precip. -- in
6:10 AM 8:44 PM
Waxing Crescent, 22% visible
Pressure 30.22 in
Visibility 10.0 miles
Clouds Mostly Cloudy 7000 ft
Overcast 8500 ft
Dew Point 49 °F
Humidity 74%
Rainfall 0.00 in
Snow Depth Not available.
UV 3 out of 12
Pollen 7.80 out of 12
Air Quality Not available.
Flu Activity No Activity
METAR KCNK 221655Z AUTO 13008KT 10SM BKN070 OVC085 14/09 A3022 RMK AO2 RAB21E42 SLP231 P0000 T01390089

More Conditions Fewer Conditions

Pressure 30.22 in
Visibility 10.0 miles
Clouds Mostly Cloudy 7000 ft
Overcast 8500 ft
Dew Point 49 °F
Humidity 74%
Rainfall 0.00 in
Snow Depth Not available.
UV 3 out of 12
Pollen 7.80 out of 12
Air Quality Not available.
Flu Activity No Activity
METAR KCNK 221655Z AUTO 13008KT 10SM BKN070 OVC085 14/09 A3022 RMK AO2 RAB21E42 SLP231 P0000 T01390089

More Conditions Fewer Conditions

10-Day Weather Forecast

Almanac

Astronomy

May. 22, 2015 Rise Set
Actual Time
Civil Twilight
Nautical Twilight
Astronomical Twilight
Moon
Length of Visible Light
Length of Day
Tomorrow will be .
, % of the Moon is Illuminated

Today's Extremes

State Highs State Lows

Community

WunderPhotos

Upload Photos

1,823,268 photos uploaded!

WunderBlogs® & News

Nearby

Air Quality

  Air Quality AQ Index Pollutant
Not available.

Snow Depth

Station Depth Elevation

Earthquake Activity

City Distance Mag. Time & Date
Minimum magnitude displayed is 2.5.

Coastal Water Temperatures

Place Temperature

Stations

Nearby Weather Stations

Station Location Temp. Windchill Dew Point Humidity Wind Precip. Elev Updated Type